createdAt,value
2019-03-11T00:02:14.120Z,94.00
2019-03-11T00:04:44.349Z,93.60
2019-03-11T00:07:14.585Z,94.40
2019-03-11T00:09:44.799Z,92.40
2019-03-11T00:12:15.015Z,93.60
2019-03-11T00:14:45.178Z,93.10
2019-03-11T00:17:16.622Z,95.60
2019-03-11T00:19:46.779Z,94.60
2019-03-11T00:22:17.006Z,93.20
2019-03-11T00:24:47.173Z,92.60
2019-03-11T00:27:17.400Z,92.80
2019-03-11T00:29:49.342Z,92.70
2019-03-11T00:32:19.393Z,93.50
2019-03-11T00:34:49.552Z,93.00
2019-03-11T00:37:19.793Z,93.40
2019-03-11T00:39:49.947Z,93.50
2019-03-11T00:42:20.181Z,93.00
2019-03-11T00:44:50.335Z,93.90
2019-03-11T00:47:20.555Z,94.50
2019-03-11T00:49:51.018Z,93.70
2019-03-11T00:52:21.239Z,93.90
2019-03-11T00:54:51.413Z,94.00
2019-03-11T00:57:21.646Z,94.90
2019-03-11T00:59:51.821Z,94.70
2019-03-11T01:02:22.052Z,94.40
2019-03-11T01:04:52.220Z,94.10
2019-03-11T01:07:22.447Z,93.90
2019-03-11T01:09:52.608Z,93.90
2019-03-11T01:12:22.832Z,93.20
2019-03-11T01:14:53.009Z,93.40
2019-03-11T01:17:23.234Z,93.30
2019-03-11T01:19:53.413Z,93.50
2019-03-11T01:22:23.638Z,94.90
2019-03-11T01:24:53.795Z,95.80
2019-03-11T01:27:24.049Z,95.60
2019-03-11T01:29:54.218Z,94.40
2019-03-11T01:32:24.540Z,94.60
2019-03-11T01:34:54.704Z,93.70
2019-03-11T01:37:24.944Z,93.90
2019-03-11T01:39:55.102Z,93.70
2019-03-11T01:42:25.340Z,94.40
2019-03-11T01:44:56.701Z,93.40
2019-03-11T01:47:26.940Z,94.20
2019-03-11T01:49:57.108Z,94.20
2019-03-11T01:52:27.318Z,94.50
2019-03-11T01:54:57.535Z,94.80
2019-03-11T01:57:27.765Z,93.60
2019-03-11T01:59:57.988Z,94.30
2019-03-11T02:02:29.291Z,93.60
2019-03-11T02:04:59.507Z,94.20
2019-03-11T02:07:29.725Z,95.40
2019-03-11T02:09:59.953Z,94.30
2019-03-11T02:12:30.167Z,93.60
2019-03-11T02:15:00.489Z,93.80
2019-03-11T02:17:30.686Z,95.10
2019-03-11T02:20:00.913Z,95.50
2019-03-11T02:22:31.130Z,95.60
2019-03-11T02:25:01.346Z,95.50
2019-03-11T02:27:31.578Z,92.60
2019-03-11T02:30:01.789Z,92.30
2019-03-11T02:32:32.211Z,92.80
2019-03-11T02:35:02.554Z,93.40
2019-03-11T02:37:32.876Z,93.80
2019-03-11T02:40:03.101Z,94.10
2019-03-11T02:42:33.422Z,95.00
2019-03-11T02:45:03.745Z,95.20
2019-03-11T02:47:33.978Z,93.90
2019-03-11T02:50:05.308Z,93.70
2019-03-11T02:52:35.555Z,94.00
2019-03-11T02:55:06.803Z,94.10
2019-03-11T02:57:37.425Z,94.10
2019-03-11T03:00:19.510Z,94.30
2019-03-11T03:02:57.069Z,95.70
2019-03-11T03:05:31.865Z,95.80
2019-03-11T03:08:02.008Z,94.50
2019-03-11T03:10:32.235Z,94.80
2019-03-11T03:13:02.394Z,93.80
2019-03-11T03:15:32.625Z,93.70
2019-03-11T03:18:02.800Z,93.20
2019-03-11T03:20:33.050Z,93.10
2019-03-11T03:23:03.204Z,93.20
2019-03-11T03:25:34.944Z,94.60
2019-03-11T03:28:05.323Z,96.00
2019-03-11T03:30:35.871Z,94.50
2019-03-11T03:33:06.017Z,93.80
2019-03-11T03:35:36.236Z,95.00
2019-03-11T03:38:06.395Z,93.50
2019-03-11T03:40:36.629Z,93.30
2019-03-11T03:43:06.960Z,93.40
2019-03-11T03:45:40.311Z,94.00
2019-03-11T03:48:11.751Z,94.20
2019-03-11T03:50:42.029Z,94.70
2019-03-11T03:53:12.181Z,96.50
2019-03-11T03:55:42.401Z,95.80
2019-03-11T03:58:12.562Z,95.80
2019-03-11T04:00:42.791Z,95.60
2019-03-11T04:03:12.956Z,92.40
2019-03-11T04:05:43.181Z,92.50
2019-03-11T04:08:13.348Z,92.80
2019-03-11T04:10:44.500Z,92.70
2019-03-11T04:13:14.659Z,93.30
2019-03-11T04:15:44.896Z,93.80
2019-03-11T04:18:15.052Z,95.40
2019-03-11T04:20:45.294Z,96.40
2019-03-11T04:23:15.511Z,96.30
2019-03-11T04:25:45.780Z,93.70
2019-03-11T04:28:15.936Z,93.80
2019-03-11T04:30:46.150Z,94.20
2019-03-11T04:33:16.318Z,94.00
2019-03-11T04:35:46.545Z,93.90
2019-03-11T04:38:16.712Z,93.80
2019-03-11T04:40:46.955Z,94.40
2019-03-11T04:43:17.125Z,94.60
2019-03-11T04:45:47.363Z,94.80
2019-03-11T04:48:17.548Z,95.40
2019-03-11T04:50:47.777Z,94.30
2019-03-11T04:53:17.935Z,94.50
2019-03-11T04:55:48.169Z,94.50
2019-03-11T04:58:18.395Z,95.20
2019-03-11T05:00:48.617Z,95.40
2019-03-11T05:03:18.831Z,96.10
2019-03-11T05:05:49.063Z,94.90
2019-03-11T05:08:19.298Z,95.20
2019-03-11T05:10:49.514Z,94.50
2019-03-11T05:13:19.729Z,94.60
2019-03-11T05:15:49.939Z,94.60
2019-03-11T05:18:20.169Z,94.90
2019-03-11T05:20:50.382Z,96.60
2019-03-11T05:23:20.610Z,95.40
2019-03-11T05:25:50.830Z,93.90
2019-03-11T05:28:22.175Z,93.30
2019-03-11T05:30:52.383Z,93.70
2019-03-11T05:33:22.603Z,94.50
2019-03-11T05:35:52.829Z,96.80
2019-03-11T05:38:23.041Z,94.30
2019-03-11T05:40:53.263Z,94.00
2019-03-11T05:43:23.487Z,93.40
2019-03-11T05:45:53.737Z,95.90
2019-03-11T05:48:23.972Z,96.30
2019-03-11T05:50:55.402Z,95.60
2019-03-11T05:53:25.611Z,93.70
2019-03-11T05:55:55.955Z,93.20
2019-03-11T05:58:26.375Z,93.10
2019-03-11T06:00:56.596Z,93.30
2019-03-11T06:03:26.829Z,93.70
2019-03-11T06:05:57.067Z,94.90
2019-03-11T06:08:27.247Z,93.70
2019-03-11T06:10:57.472Z,94.00
2019-03-11T06:13:35.665Z,94.00
2019-03-11T06:15:59.528Z,94.70
2019-03-11T06:18:37.305Z,94.10
2019-03-11T06:21:15.372Z,94.30
2019-03-11T06:23:45.640Z,94.70
2019-03-11T06:26:15.849Z,94.60
2019-03-11T06:28:46.139Z,94.30
2019-03-11T06:31:16.365Z,94.50
2019-03-11T06:33:46.519Z,93.90
2019-03-11T06:36:16.761Z,94.20
2019-03-11T06:38:46.928Z,94.30
2019-03-11T06:41:17.164Z,94.90
2019-03-11T06:43:47.328Z,94.00
2019-03-11T06:46:17.562Z,94.80
2019-03-11T06:49:07.077Z,95.10
2019-03-11T06:51:37.312Z,94.30
2019-03-11T06:54:07.471Z,93.20
2019-03-11T06:56:37.710Z,92.30
2019-03-11T06:59:07.887Z,91.10
2019-03-11T07:01:38.220Z,91.10
2019-03-11T07:04:08.396Z,91.00
2019-03-11T07:06:38.648Z,90.10
2019-03-11T07:09:08.846Z,88.30
2019-03-11T07:11:39.149Z,87.10
2019-03-11T07:14:09.312Z,86.10
2019-03-11T07:16:39.553Z,86.70
2019-03-11T07:19:09.859Z,86.50
2019-03-11T07:21:40.097Z,86.50
2019-03-11T07:24:10.263Z,86.40
2019-03-11T07:26:40.492Z,86.70
2019-03-11T07:29:10.668Z,87.80
2019-03-11T07:31:40.904Z,87.70
2019-03-11T07:34:11.174Z,87.60
2019-03-11T07:36:41.402Z,88.10
2019-03-11T07:39:11.567Z,88.40
2019-03-11T07:41:41.806Z,89.10
2019-03-11T07:44:11.966Z,87.90
2019-03-11T07:46:42.196Z,88.60
2019-03-11T07:49:12.377Z,88.60
2019-03-11T07:51:42.601Z,89.00
2019-03-11T07:54:12.780Z,88.50
2019-03-11T07:56:43.021Z,88.40
2019-03-11T07:59:13.189Z,89.60
2019-03-11T08:01:43.469Z,87.80
2019-03-11T08:04:13.695Z,88.40
2019-03-11T08:06:43.933Z,88.20
2019-03-11T08:09:14.108Z,88.70
2019-03-11T08:11:44.353Z,88.70
2019-03-11T08:14:14.530Z,87.80
2019-03-11T08:16:44.759Z,86.70
2019-03-11T08:19:14.941Z,86.50
2019-03-11T08:21:45.163Z,87.60
2019-03-11T08:24:16.688Z,85.40
2019-03-11T08:26:47.174Z,86.10
2019-03-11T08:29:17.356Z,85.50
2019-03-11T08:31:48.713Z,85.70
2019-03-11T08:34:18.861Z,85.90
2019-03-11T08:36:49.101Z,85.10
2019-03-11T08:39:19.277Z,85.60
2019-03-11T08:41:49.506Z,84.70
2019-03-11T08:44:19.686Z,84.60
2019-03-11T08:46:49.919Z,84.70
2019-03-11T08:49:20.099Z,84.50
2019-03-11T08:51:50.336Z,84.20
2019-03-11T08:54:20.513Z,84.00
2019-03-11T08:56:50.741Z,84.30
2019-03-11T08:59:21.902Z,82.70
2019-03-11T09:01:52.140Z,83.80
2019-03-11T09:04:22.319Z,84.60
2019-03-11T09:06:52.534Z,83.90
2019-03-11T09:09:22.746Z,83.90
2019-03-11T09:11:52.982Z,83.60
2019-03-11T09:14:23.157Z,84.00
2019-03-11T09:16:53.392Z,82.90
2019-03-11T09:19:23.562Z,83.50
2019-03-11T09:21:53.805Z,83.40
2019-03-11T09:24:25.085Z,82.90
2019-03-11T09:26:55.336Z,81.50
2019-03-11T09:29:25.515Z,82.40
2019-03-11T09:31:55.764Z,80.60
2019-03-11T09:34:25.947Z,81.30
2019-03-11T09:37:11.001Z,81.40
2019-03-11T09:39:49.206Z,81.90
2019-03-11T09:42:22.799Z,81.10
2019-03-11T09:44:55.480Z,80.60
2019-03-11T09:47:26.301Z,80.70
2019-03-11T09:49:56.677Z,82.10
2019-03-11T09:52:26.983Z,81.10
2019-03-11T09:54:57.209Z,80.20
2019-03-11T09:57:27.460Z,80.40
2019-03-11T09:59:57.678Z,79.60
2019-03-11T10:02:28.946Z,80.00
2019-03-11T10:04:59.174Z,77.50
2019-03-11T10:07:32.364Z,79.40
2019-03-11T10:10:11.269Z,79.70
2019-03-11T10:12:46.294Z,79.30
2019-03-11T10:15:27.025Z,79.30
2019-03-11T10:18:04.696Z,78.80
2019-03-11T10:20:39.580Z,78.40
2019-03-11T10:23:18.499Z,77.10
2019-03-11T10:25:56.443Z,77.90
2019-03-11T10:28:29.261Z,76.50
2019-03-11T10:31:05.842Z,73.60
2019-03-11T10:33:43.482Z,72.30
2019-03-11T10:36:21.038Z,70.40
2019-03-11T10:38:58.368Z,70.00
2019-03-11T10:41:36.290Z,69.00
2019-03-11T10:44:11.663Z,67.00
2019-03-11T10:46:48.622Z,66.70
2019-03-11T10:49:27.513Z,63.80
2019-03-11T10:52:07.292Z,60.90
2019-03-11T10:54:37.745Z,58.00
2019-03-11T10:57:07.963Z,60.00
2019-03-11T10:59:38.131Z,59.10
2019-03-11T11:02:08.360Z,56.20
2019-03-11T11:04:38.523Z,56.90
2019-03-11T11:07:08.773Z,56.10
2019-03-11T11:09:39.694Z,54.00
2019-03-11T11:12:24.204Z,54.30
2019-03-11T11:15:12.155Z,54.30
2019-03-11T11:18:01.681Z,55.50
2019-03-11T11:20:35.455Z,53.60
2019-03-11T11:23:05.715Z,53.80
2019-03-11T11:25:35.888Z,54.50
2019-03-11T11:28:06.127Z,53.40
2019-03-11T11:30:36.307Z,55.00
2019-03-11T11:33:06.547Z,52.80
2019-03-11T11:35:36.714Z,49.60
2019-03-11T11:38:08.082Z,50.10
2019-03-11T11:40:38.257Z,48.60
2019-03-11T11:43:08.495Z,47.90
2019-03-11T11:45:38.669Z,48.60
2019-03-11T11:48:08.918Z,47.00
2019-03-11T11:50:39.080Z,43.90
2019-03-11T11:53:09.402Z,45.00
2019-03-11T11:55:39.682Z,44.00
2019-03-11T11:58:09.912Z,44.70
2019-03-11T12:00:50.932Z,47.30
2019-03-11T12:03:21.163Z,51.90
2019-03-11T12:05:51.340Z,53.60
2019-03-11T12:08:21.568Z,53.70
2019-03-11T12:10:51.757Z,52.70
2019-03-11T12:13:21.996Z,50.40
2019-03-11T12:15:52.160Z,46.50
2019-03-11T12:18:22.393Z,47.50
2019-03-11T12:20:52.675Z,45.00
2019-03-11T12:23:22.914Z,36.30
2019-03-11T12:25:53.168Z,26.70
2019-03-11T12:28:23.390Z,23.70
2019-03-11T12:30:53.557Z,23.90
2019-03-11T12:33:23.769Z,23.40
2019-03-11T12:35:55.026Z,23.10
2019-03-11T12:38:25.254Z,24.10
2019-03-11T12:40:55.414Z,25.70
2019-03-11T12:43:25.651Z,27.40
2019-03-11T12:45:55.816Z,27.70
2019-03-11T12:48:26.159Z,26.80
2019-03-11T12:50:56.310Z,26.30
2019-03-11T12:53:26.546Z,24.80
2019-03-11T12:55:57.791Z,24.80
2019-03-11T12:58:28.019Z,24.00
2019-03-11T13:00:59.176Z,25.20
2019-03-11T13:03:29.394Z,24.80
2019-03-11T13:05:59.561Z,23.40
2019-03-11T13:08:29.775Z,21.20
2019-03-11T13:10:59.952Z,20.80
2019-03-11T13:13:30.192Z,21.50
2019-03-11T13:16:00.353Z,21.10
2019-03-11T13:18:41.507Z,18.70
2019-03-11T13:21:14.805Z,17.80
2019-03-11T13:23:45.023Z,16.20
2019-03-11T13:26:15.176Z,17.10
2019-03-11T13:28:45.419Z,16.40
2019-03-11T13:31:15.589Z,17.00
2019-03-11T13:33:45.822Z,17.20
2019-03-11T13:36:16.004Z,17.40
2019-03-11T13:38:46.207Z,17.00
2019-03-11T13:41:17.477Z,16.40
2019-03-11T13:43:48.644Z,16.50
2019-03-11T13:46:19.091Z,16.30
2019-03-11T13:48:49.329Z,16.80
2019-03-11T13:51:19.483Z,16.80
2019-03-11T13:53:49.707Z,16.80
2019-03-11T13:56:19.859Z,16.00
2019-03-11T13:58:50.087Z,16.00
2019-03-11T14:01:21.381Z,15.90
2019-03-11T14:03:51.881Z,16.40
2019-03-11T14:06:22.035Z,16.50
2019-03-11T14:08:52.243Z,15.30
2019-03-11T14:11:22.395Z,15.20
2019-03-11T14:13:54.048Z,15.10
2019-03-11T14:16:24.207Z,14.80
2019-03-11T14:18:54.441Z,14.60
2019-03-11T14:21:25.897Z,15.30
2019-03-11T14:23:56.428Z,16.10
2019-03-11T14:26:27.194Z,15.40
2019-03-11T14:28:57.425Z,15.00
2019-03-11T14:31:27.590Z,15.00
2019-03-11T14:33:57.805Z,14.40
2019-03-11T14:36:27.968Z,13.80
2019-03-11T14:38:58.183Z,13.50
2019-03-11T14:41:28.366Z,13.80
2019-03-11T14:43:58.590Z,14.60
2019-03-11T14:46:28.751Z,14.50
2019-03-11T14:48:58.972Z,14.30
2019-03-11T14:51:29.138Z,14.10
2019-03-11T14:53:59.362Z,14.80
2019-03-11T14:56:29.570Z,14.50
2019-03-11T14:58:59.785Z,14.60
2019-03-11T15:01:29.999Z,13.90
2019-03-11T15:04:00.225Z,13.70
2019-03-11T15:06:31.443Z,13.80
2019-03-11T15:09:01.651Z,13.60
2019-03-11T15:11:33.399Z,13.80
2019-03-11T15:14:03.618Z,14.10
2019-03-11T15:16:33.831Z,15.30
2019-03-11T15:19:04.060Z,15.90
2019-03-11T15:21:34.297Z,14.00
2019-03-11T15:24:04.502Z,13.60
2019-03-11T15:26:34.715Z,13.90
2019-03-11T15:29:04.950Z,12.70
2019-03-11T15:31:36.172Z,14.20
2019-03-11T15:34:06.399Z,13.90
2019-03-11T15:36:36.599Z,15.80
2019-03-11T15:39:06.815Z,15.50
2019-03-11T15:41:38.346Z,15.70
2019-03-11T15:44:08.581Z,14.80
2019-03-11T15:46:39.643Z,14.60
2019-03-11T15:49:10.370Z,15.00
2019-03-11T15:51:40.435Z,15.20
2019-03-11T15:54:10.646Z,14.60
2019-03-11T15:56:40.890Z,14.20
2019-03-11T15:59:11.089Z,15.40
2019-03-11T16:01:41.304Z,14.20
2019-03-11T16:04:11.511Z,14.10
2019-03-11T16:06:41.729Z,13.40
2019-03-11T16:09:19.095Z,13.60
2019-03-11T16:11:43.804Z,12.60
2019-03-11T16:14:14.044Z,12.30
2019-03-11T16:16:44.226Z,12.60
2019-03-11T16:19:15.611Z,12.90
2019-03-11T16:21:45.767Z,12.90
2019-03-11T16:24:15.991Z,12.70
2019-03-11T16:26:46.191Z,10.70
2019-03-11T16:29:16.402Z,10.60
2019-03-11T16:31:47.581Z,11.90
2019-03-11T16:34:17.798Z,13.80
2019-03-11T16:36:47.952Z,14.30
2019-03-11T16:39:18.167Z,16.30
2019-03-11T16:41:49.215Z,17.10
2019-03-11T16:44:24.666Z,17.40
2019-03-11T16:46:58.119Z,17.70
2019-03-11T16:49:28.380Z,18.00
2019-03-11T16:52:03.997Z,18.60
2019-03-11T16:54:38.070Z,18.70
2019-03-11T16:57:13.881Z,18.90
2019-03-11T16:59:51.871Z,19.10
2019-03-11T17:02:27.363Z,18.60
2019-03-11T17:05:03.370Z,17.90
2019-03-11T17:07:39.222Z,17.50
2019-03-11T17:10:26.811Z,18.20
2019-03-11T17:13:03.445Z,17.60
2019-03-11T17:15:39.733Z,18.20
2019-03-11T17:18:16.731Z,17.80
2019-03-11T17:20:54.333Z,17.60
2019-03-11T17:23:31.623Z,18.00
2019-03-11T17:26:08.780Z,18.20
2019-03-11T17:28:45.011Z,16.60
2019-03-11T17:31:22.358Z,17.10
2019-03-11T17:33:53.407Z,17.30
2019-03-11T17:36:23.993Z,17.10
2019-03-11T17:38:54.628Z,16.50
2019-03-11T17:41:25.320Z,16.10
2019-03-11T17:43:55.933Z,16.10
2019-03-11T17:46:26.704Z,16.60
2019-03-11T17:49:01.434Z,15.90
2019-03-11T17:51:31.985Z,15.80
2019-03-11T17:54:02.469Z,15.60
2019-03-11T17:56:32.937Z,15.20
2019-03-11T17:59:04.139Z,14.90
2019-03-11T18:01:34.467Z,14.90
2019-03-11T18:04:04.809Z,15.40
2019-03-11T18:06:35.293Z,14.40
2019-03-11T18:09:06.560Z,14.30
2019-03-11T18:11:40.000Z,14.60
2019-03-11T18:14:11.055Z,14.20
2019-03-11T18:16:41.712Z,14.20
2019-03-11T18:19:12.297Z,13.40
2019-03-11T18:21:43.755Z,12.40
2019-03-11T18:24:14.342Z,11.10
2019-03-11T18:26:45.025Z,11.70
2019-03-11T18:29:15.585Z,12.10
2019-03-11T18:31:46.273Z,12.20
2019-03-11T18:34:17.034Z,12.50
2019-03-11T18:36:47.699Z,12.60
2019-03-11T18:39:19.280Z,12.70
2019-03-11T18:41:50.661Z,12.90
2019-03-11T18:44:21.419Z,11.80
2019-03-11T18:46:53.210Z,11.80
2019-03-11T18:49:23.907Z,11.90
2019-03-11T18:51:54.448Z,12.30
2019-03-11T18:54:25.173Z,13.40
2019-03-11T18:56:55.732Z,13.40
2019-03-11T18:59:26.070Z,14.30
2019-03-11T19:01:56.432Z,12.70
2019-03-11T19:04:26.755Z,12.60
2019-03-11T19:06:56.964Z,13.10
2019-03-11T19:09:27.206Z,13.10
2019-03-11T19:11:57.336Z,14.80
2019-03-11T19:14:27.520Z,14.80
2019-03-11T19:16:57.714Z,14.40
2019-03-11T19:19:27.884Z,14.60
2019-03-11T19:21:58.145Z,15.10
2019-03-11T19:24:28.475Z,15.10
2019-03-11T19:26:58.702Z,14.50
2019-03-11T19:29:28.925Z,15.30
2019-03-11T19:31:59.275Z,14.80
2019-03-11T19:34:29.506Z,15.30
2019-03-11T19:36:59.797Z,14.30
2019-03-11T19:39:30.017Z,15.60
2019-03-11T19:42:00.236Z,15.10
2019-03-11T19:44:30.462Z,14.80
2019-03-11T19:47:00.790Z,16.20
2019-03-11T19:49:31.177Z,15.90
2019-03-11T19:52:01.403Z,16.50
2019-03-11T19:54:31.597Z,15.50
2019-03-11T19:57:01.833Z,17.20
2019-03-11T19:59:32.165Z,16.50
2019-03-11T20:02:02.476Z,17.30
2019-03-11T20:04:32.788Z,17.50
2019-03-11T20:07:03.251Z,18.10
2019-03-11T20:09:34.483Z,18.30
2019-03-11T20:12:04.955Z,17.20
2019-03-11T20:14:35.194Z,16.30
2019-03-11T20:17:05.435Z,16.80
2019-03-11T20:19:35.747Z,16.70
2019-03-11T20:22:05.964Z,16.90
2019-03-11T20:24:36.181Z,17.20
2019-03-11T20:27:06.503Z,17.80
2019-03-11T20:29:36.808Z,20.00
2019-03-11T20:32:06.988Z,19.90
2019-03-11T20:34:37.203Z,19.40
2019-03-11T20:37:07.423Z,19.20
2019-03-11T20:39:39.228Z,19.40
2019-03-11T20:42:09.404Z,18.10
2019-03-11T20:44:39.631Z,19.50
2019-03-11T20:47:10.002Z,19.00
2019-03-11T20:49:40.293Z,19.20
2019-03-11T20:52:10.474Z,18.20
2019-03-11T20:54:40.762Z,18.10
2019-03-11T20:57:11.066Z,18.80
2019-03-11T20:59:41.268Z,18.50
2019-03-11T21:02:11.554Z,19.40
2019-03-11T21:04:41.746Z,19.60
2019-03-11T21:07:12.064Z,20.30
2019-03-11T21:09:42.286Z,20.00
2019-03-11T21:12:12.506Z,19.40
2019-03-11T21:14:42.682Z,19.50
2019-03-11T21:17:24.971Z,20.60
2019-03-11T21:19:44.727Z,21.20
2019-03-11T21:22:14.977Z,21.90
2019-03-11T21:24:45.310Z,22.00
2019-03-11T21:27:15.683Z,22.50
2019-03-11T21:29:46.097Z,21.90
2019-03-11T21:32:16.325Z,21.10
2019-03-11T21:34:46.566Z,21.60
2019-03-11T21:37:16.836Z,22.00
2019-03-11T21:39:47.039Z,22.30
2019-03-11T21:42:17.364Z,22.60
2019-03-11T21:44:47.502Z,22.00
2019-03-11T21:47:17.765Z,22.10
2019-03-11T21:49:47.985Z,22.80
2019-03-11T21:52:18.280Z,23.20
2019-03-11T21:54:48.468Z,23.30
2019-03-11T21:57:18.776Z,23.10
2019-03-11T21:59:49.118Z,22.70
2019-03-11T22:02:19.639Z,23.30
2019-03-11T22:04:49.801Z,23.50
2019-03-11T22:07:20.002Z,23.90
2019-03-11T22:09:50.208Z,23.90
2019-03-11T22:12:20.526Z,23.80
2019-03-11T22:14:51.071Z,23.60
2019-03-11T22:17:22.606Z,23.80
2019-03-11T22:19:52.759Z,23.80
2019-03-11T22:22:22.982Z,24.20
2019-03-11T22:24:53.128Z,24.00
2019-03-11T22:27:23.333Z,22.90
2019-03-11T22:29:53.494Z,23.00
2019-03-11T22:32:23.697Z,23.30
2019-03-11T22:34:53.843Z,23.70
2019-03-11T22:37:24.043Z,23.20
2019-03-11T22:39:54.201Z,22.70
2019-03-11T22:42:24.506Z,22.90
2019-03-11T22:44:54.659Z,23.10
2019-03-11T22:47:26.176Z,23.10
2019-03-11T22:49:56.341Z,22.60
2019-03-11T22:52:27.535Z,22.50
2019-03-11T22:54:57.697Z,22.60
2019-03-11T22:57:29.782Z,23.10
2019-03-11T22:59:59.926Z,23.10
2019-03-11T23:02:30.149Z,23.60
2019-03-11T23:05:00.396Z,23.00
2019-03-11T23:07:30.615Z,23.20
2019-03-11T23:10:00.771Z,23.30
2019-03-11T23:12:30.988Z,23.10
2019-03-11T23:15:01.131Z,23.10
2019-03-11T23:17:31.434Z,23.20
2019-03-11T23:20:01.581Z,23.30
2019-03-11T23:22:31.783Z,23.30
2019-03-11T23:25:01.949Z,23.20
2019-03-11T23:27:35.018Z,23.20
2019-03-11T23:30:05.723Z,23.70
2019-03-11T23:32:36.043Z,24.20
2019-03-11T23:35:07.414Z,24.60
2019-03-11T23:37:37.607Z,24.60
2019-03-11T23:40:09.665Z,24.20
2019-03-11T23:42:39.871Z,23.70
2019-03-11T23:45:11.339Z,23.80
2019-03-11T23:47:41.557Z,24.00
2019-03-11T23:50:13.311Z,24.10
2019-03-11T23:52:43.523Z,23.90
2019-03-11T23:55:13.667Z,24.40
2019-03-11T23:57:44.936Z,24.70
